Time;durP1;ratioP1;P1;durP2;ratioP2;P2;SDS_P1;SDS_P2;PMS_P1;PMS_P2;Temp;Humidity;BMP_temperature;BMP_pressure;BME280_temperature;BME280_humidity;BME280_pressure;Samples;Min_cycle;Max_cycle;Signal;HPM_P1;HPM_P2
2021/12/03 00:01:09;;;;;;;;;;;;;;;17.52;62.86;97130.81;3068142;28;19933;-56
2021/12/03 00:02:41;;;;;;;;;;;;;;;17.53;63.02;97131.66;3069150;28;20009;-51
2021/12/03 00:04:12;;;;;;;;;;;;;;;17.51;62.84;97139.09;3069842;28;19926;-55
2021/12/03 00:05:44;;;;;;;;;;;;;;;17.50;63.06;97137.47;3071374;28;19922;-55
2021/12/03 00:07:17;;;;;;;;;;;;;;;17.49;63.09;97142.00;3070190;28;20292;-55
2021/12/03 00:08:49;;;;;;;;;;;;;;;17.46;62.91;97131.75;3069090;28;20328;-56
2021/12/03 00:10:24;;;;;;;;;;;;;;;17.45;63.04;97140.03;3069016;28;19977;-53
2021/12/03 00:11:55;;;;;;;;;;;;;;;17.43;63.09;97129.53;3068556;28;20307;-55
2021/12/03 00:13:28;;;;;;;;;;;;;;;17.41;62.99;97132.47;3073589;28;19930;-57
2021/12/03 00:15:00;;;;;;;;;;;;;;;17.41;63.14;97137.81;3068570;28;19922;-56
2021/12/03 00:16:31;;;;;;;;;;;;;;;17.40;63.10;97138.84;3068219;28;19926;-54
2021/12/03 00:18:03;;;;;;;;;;;;;;;17.39;63.09;97139.09;3070975;28;19922;-54
2021/12/03 00:19:34;;;;;;;;;;;;;;;17.38;62.96;97137.44;3068027;28;19922;-56
2021/12/03 00:21:08;;;;;;;;;;;;;;;17.35;63.22;97141.41;3071893;28;19937;-54
2021/12/03 00:22:41;;;;;;;;;;;;;;;17.35;63.08;97141.41;3070734;28;19926;-54
2021/12/03 00:24:13;;;;;;;;;;;;;;;17.33;62.94;97137.34;3072615;28;19925;-55
2021/12/03 00:25:44;;;;;;;;;;;;;;;17.32;63.03;97138.38;3069821;28;19969;-51
2021/12/03 00:27:17;;;;;;;;;;;;;;;17.32;63.22;97141.06;3068866;28;19969;-56
2021/12/03 00:28:48;;;;;;;;;;;;;;;17.31;63.04;97150.16;3069540;28;19938;-50
2021/12/03 00:30:20;;;;;;;;;;;;;;;17.29;63.13;97153.06;3071729;28;19926;-54
2021/12/03 00:31:52;;;;;;;;;;;;;;;17.27;63.14;97149.78;3071169;28;19932;-52
2021/12/03 00:33:23;;;;;;;;;;;;;;;17.26;63.29;97147.34;3070108;28;19926;-52
2021/12/03 00:34:55;;;;;;;;;;;;;;;17.25;63.21;97148.41;3070296;28;19929;-53
2021/12/03 00:36:28;;;;;;;;;;;;;;;17.23;63.09;97153.97;3070758;28;19926;-56
2021/12/03 00:38:01;;;;;;;;;;;;;;;17.22;63.23;97152.34;3067581;28;19926;-54
2021/12/03 00:39:33;;;;;;;;;;;;;;;17.20;63.33;97165.97;3072006;28;19922;-55
2021/12/03 00:41:06;;;;;;;;;;;;;;;17.19;63.20;97160.88;3070508;28;20980;-54
2021/12/03 00:42:38;;;;;;;;;;;;;;;17.17;63.19;97161.06;3068771;28;19930;-53
2021/12/03 00:44:10;;;;;;;;;;;;;;;17.17;63.30;97179.03;3069151;28;19933;-52
2021/12/03 00:45:43;;;;;;;;;;;;;;;17.15;63.27;97175.75;3069537;28;20289;-54
2021/12/03 00:47:15;;;;;;;;;;;;;;;17.15;63.19;97183.78;3069334;28;19929;-54
2021/12/03 00:48:47;;;;;;;;;;;;;;;17.12;63.28;97185.06;3069117;28;19922;-56
2021/12/03 00:50:20;;;;;;;;;;;;;;;17.11;63.20;97188.78;3068894;28;19923;-55
2021/12/03 00:51:52;;;;;;;;;;;;;;;17.09;63.32;97188.19;3070488;28;19977;-55
2021/12/03 00:53:25;;;;;;;;;;;;;;;17.08;63.17;97189.25;3071005;28;19923;-53
2021/12/03 00:54:56;;;;;;;;;;;;;;;17.08;63.30;97194.59;3067543;28;19923;-55
2021/12/03 00:56:28;;;;;;;;;;;;;;;17.06;63.43;97187.84;3070278;28;19929;-55
2021/12/03 00:57:59;;;;;;;;;;;;;;;17.03;63.17;97191.78;3072203;28;19923;-55
2021/12/03 00:59:31;;;;;;;;;;;;;;;17.03;63.27;97191.78;3070505;28;20022;-54
2021/12/03 01:01:04;;;;;;;;;;;;;;;17.02;63.24;97189.34;3068234;28;19927;-53
2021/12/03 01:02:35;;;;;;;;;;;;;;;17.00;63.39;97200.28;3070834;28;19922;-55
2021/12/03 01:04:07;;;;;;;;;;;;;;;17.00;63.43;97200.28;3070363;28;20277;-54
2021/12/03 01:05:39;;;;;;;;;;;;;;;16.98;63.26;97205.84;3070536;28;19922;-54
2021/12/03 01:07:10;;;;;;;;;;;;;;;16.97;63.33;97206.09;3071572;28;19930;-51
2021/12/03 01:08:43;;;;;;;;;;;;;;;16.95;63.36;97214.34;3071834;28;19926;-55
2021/12/03 01:10:15;;;;;;;;;;;;;;;16.94;63.40;97214.59;3070987;28;19922;-54
2021/12/03 01:11:47;;;;;;;;;;;;;;;16.92;63.30;97225.53;3070824;28;19932;-54
2021/12/03 01:13:19;;;;;;;;;;;;;;;16.91;63.42;97221.22;3071435;28;20019;-54
2021/12/03 01:14:50;;;;;;;;;;;;;;;16.91;63.39;97223.06;3069467;28;19930;-56
2021/12/03 01:16:22;;;;;;;;;;;;;;;16.89;63.35;97222.50;3070847;28;19936;-52
2021/12/03 01:17:54;;;;;;;;;;;;;;;16.88;63.50;97224.34;3070996;28;19981;-55
2021/12/03 01:19:26;;;;;;;;;;;;;;;16.87;63.45;97219.22;3069955;28;19926;-54
2021/12/03 01:20:58;;;;;;;;;;;;;;;16.85;63.40;97229.31;3072449;28;19922;-54
2021/12/03 01:22:29;;;;;;;;;;;;;;;16.84;63.44;97220.47;3070869;28;19930;-52
2021/12/03 01:24:02;;;;;;;;;;;;;;;16.83;63.46;97224.22;3069177;28;20031;-53
2021/12/03 01:25:34;;;;;;;;;;;;;;;16.81;63.52;97228.16;3071368;28;20048;-55
2021/12/03 01:27:06;;;;;;;;;;;;;;;16.78;63.52;97232.09;3073673;28;20360;-55
2021/12/03 01:28:37;;;;;;;;;;;;;;;16.78;63.54;97242.00;3072151;28;20016;-54
2021/12/03 01:30:10;;;;;;;;;;;;;;;16.77;63.48;97245.69;3069883;28;20365;-52
2021/12/03 01:31:42;;;;;;;;;;;;;;;16.73;63.65;97245.31;3071857;28;19937;-54
2021/12/03 01:33:13;;;;;;;;;;;;;;;16.72;63.57;97241.81;3070681;28;20652;-53
2021/12/03 01:34:45;;;;;;;;;;;;;;;16.72;63.41;97249.84;3070966;28;19922;-55
2021/12/03 01:36:17;;;;;;;;;;;;;;;16.72;63.58;97247.19;3069718;28;19922;-54
2021/12/03 01:37:48;;;;;;;;;;;;;;;16.70;63.59;97251.94;3070540;28;20628;-54
2021/12/03 01:39:21;;;;;;;;;;;;;;;16.68;63.54;97245.97;3070380;28;19929;-53
2021/12/03 01:40:53;;;;;;;;;;;;;;;16.69;63.63;97254.84;3066504;28;19930;-54
2021/12/03 01:42:24;;;;;;;;;;;;;;;16.66;63.59;97255.28;3071278;28;19927;-53
2021/12/03 01:44:00;;;;;;;;;;;;;;;16.64;63.58;97250.16;3071053;28;19930;-51
2021/12/03 01:45:35;;;;;;;;;;;;;;;16.63;63.63;97256.56;3072789;28;19929;-53
2021/12/03 01:47:06;;;;;;;;;;;;;;;16.61;63.66;97261.31;3068058;28;19933;-51
2021/12/03 01:48:40;;;;;;;;;;;;;;;16.60;63.68;97261.53;3070144;28;19926;-51
2021/12/03 01:50:12;;;;;;;;;;;;;;;16.60;63.66;97269.56;3067983;28;19922;-52
2021/12/03 01:51:44;;;;;;;;;;;;;;;16.57;63.64;97265.47;3068044;28;20018;-54
2021/12/03 01:53:17;;;;;;;;;;;;;;;16.56;63.63;97271.88;3070339;28;20475;-53
2021/12/03 01:54:49;;;;;;;;;;;;;;;16.55;63.71;97264.88;3070779;28;19937;-53
2021/12/03 01:56:22;;;;;;;;;;;;;;;16.53;63.79;97262.44;3071176;28;19972;-54
2021/12/03 01:57:53;;;;;;;;;;;;;;;16.52;63.77;97262.66;3071810;28;19922;-51
2021/12/03 01:59:24;;;;;;;;;;;;;;;16.51;63.71;97269.03;3069905;28;19936;-53
2021/12/03 02:00:57;;;;;;;;;;;;;;;16.50;63.80;97267.41;3070911;28;19926;-54
2021/12/03 02:02:29;;;;;;;;;;;;;;;16.50;63.78;97270.09;3068678;28;19965;-55
2021/12/03 02:04:01;;;;;;;;;;;;;;;16.47;63.82;97262.50;3072419;28;19954;-51
2021/12/03 02:05:33;;;;;;;;;;;;;;;16.46;63.80;97268.88;3072136;28;20373;-54
2021/12/03 02:07:04;;;;;;;;;;;;;;;16.45;63.82;97275.28;3068838;28;19933;-55
2021/12/03 02:08:37;;;;;;;;;;;;;;;16.43;63.68;97272.00;3069586;28;19922;-55
2021/12/03 02:10:09;;;;;;;;;;;;;;;16.43;63.84;97272.00;3069121;28;19926;-54
2021/12/03 02:11:40;;;;;;;;;;;;;;;16.42;63.80;97275.75;3073640;28;19965;-54
2021/12/03 02:13:11;;;;;;;;;;;;;;;16.39;63.81;97268.16;3071188;28;19930;-54
2021/12/03 02:14:43;;;;;;;;;;;;;;;16.37;63.78;97268.38;3070118;28;20407;-54
2021/12/03 02:16:15;;;;;;;;;;;;;;;16.36;63.91;97269.41;3067315;28;20638;-55
2021/12/03 02:17:47;;;;;;;;;;;;;;;16.36;63.84;97271.28;3071020;28;19929;-54
2021/12/03 02:19:18;;;;;;;;;;;;;;;16.35;63.85;97277.66;3068735;28;19930;-55
2021/12/03 02:20:51;;;;;;;;;;;;;;;16.35;63.78;97272.28;3069871;28;19937;-54
2021/12/03 02:22:22;;;;;;;;;;;;;;;16.31;63.94;97275.41;3069059;28;20393;-53
2021/12/03 02:23:55;;;;;;;;;;;;;;;16.30;63.96;97273.78;3068787;28;19937;-53
2021/12/03 02:25:27;;;;;;;;;;;;;;;16.29;64.01;97276.69;3067597;28;19930;-55
2021/12/03 02:26:59;;;;;;;;;;;;;;;16.28;64.02;97283.91;3068206;28;20586;-54
2021/12/03 02:28:34;;;;;;;;;;;;;;;16.27;63.96;97284.94;3069698;28;20008;-53
2021/12/03 02:30:05;;;;;;;;;;;;;;;16.26;63.92;97282.47;3068355;28;19985;-54
2021/12/03 02:31:37;;;;;;;;;;;;;;;16.25;63.97;97291.56;3070119;28;19933;-55
2021/12/03 02:33:09;;;;;;;;;;;;;;;16.22;64.09;97290.13;3070310;28;20612;-54
2021/12/03 02:34:40;;;;;;;;;;;;;;;16.21;64.14;97291.16;3067842;28;19922;-55
2021/12/03 02:36:13;;;;;;;;;;;;;;;16.21;64.17;97293.00;3067959;28;19922;-55
2021/12/03 02:37:45;;;;;;;;;;;;;;;16.19;64.12;97293.25;3072284;28;19929;-53
2021/12/03 02:39:17;;;;;;;;;;;;;;;16.19;63.97;97290.56;3073488;28;20281;-54
2021/12/03 02:40:48;;;;;;;;;;;;;;;16.18;64.07;97296.94;3070570;28;20474;-53
2021/12/03 02:42:19;;;;;;;;;;;;;;;16.17;63.99;97300.66;3069369;28;19926;-53
2021/12/03 02:43:51;;;;;;;;;;;;;;;16.16;64.08;97303.56;3070928;28;19937;-52
2021/12/03 02:45:22;;;;;;;;;;;;;;;16.14;64.01;97303.78;3072362;28;19930;-53
2021/12/03 02:46:54;;;;;;;;;;;;;;;16.13;64.07;97315.53;3070897;28;19936;-54
2021/12/03 02:48:27;;;;;;;;;;;;;;;16.11;64.11;97316.78;3069679;28;19937;-53
2021/12/03 02:49:58;;;;;;;;;;;;;;;16.11;64.16;97314.94;3070286;28;19926;-54
2021/12/03 02:51:31;;;;;;;;;;;;;;;16.11;64.08;97317.59;3069367;28;19945;-54
2021/12/03 02:53:03;;;;;;;;;;;;;;;16.09;64.10;97317.00;3072921;28;19922;-54
2021/12/03 02:54:34;;;;;;;;;;;;;;;16.07;64.18;97313.72;3070646;28;19977;-54
2021/12/03 02:56:06;;;;;;;;;;;;;;;16.06;64.19;97317.44;3070070;28;19962;-53
2021/12/03 02:57:38;;;;;;;;;;;;;;;16.06;64.16;97309.41;3070075;28;19933;-54
2021/12/03 02:59:10;;;;;;;;;;;;;;;16.04;64.17;97314.97;3073543;28;20588;-52
2021/12/03 03:00:42;;;;;;;;;;;;;;;16.03;64.19;97329.38;3068910;28;19930;-55
2021/12/03 03:02:14;;;;;;;;;;;;;;;16.02;64.22;97325.09;3071575;28;19934;-53
2021/12/03 03:03:45;;;;;;;;;;;;;;;16.01;64.13;97322.63;3072916;28;19922;-54
2021/12/03 03:05:17;;;;;;;;;;;;;;;16.01;64.15;97322.63;3072632;28;19922;-53
2021/12/03 03:06:50;;;;;;;;;;;;;;;16.01;64.18;97323.44;3070471;28;19930;-53
2021/12/03 03:08:21;;;;;;;;;;;;;;;16.01;64.29;97327.97;3071016;28;19929;-53
2021/12/03 03:09:53;;;;;;;;;;;;;;;16.03;64.16;97328.56;3072500;28;19929;-54
2021/12/03 03:11:24;;;;;;;;;;;;;;;16.05;64.20;97329.19;3072520;28;19922;-53
2021/12/03 03:12:57;;;;;;;;;;;;;;;16.05;64.08;97323.84;3070774;28;19927;-54
2021/12/03 03:14:28;;;;;;;;;;;;;;;16.07;64.10;97332.44;3069712;28;20679;-55
2021/12/03 03:16:00;;;;;;;;;;;;;;;16.06;63.94;97330.81;3071741;28;19926;-54
2021/12/03 03:17:31;;;;;;;;;;;;;;;16.06;64.11;97333.47;3070112;28;19928;-52
2021/12/03 03:19:09;;;;;;;;;;;;;;;16.06;64.09;97330.81;3069546;28;19926;-52
2021/12/03 03:20:42;;;;;;;;;;;;;;;16.06;64.03;97338.84;3070537;28;19922;-53
2021/12/03 03:22:15;;;;;;;;;;;;;;;16.06;64.08;97336.16;3069401;28;19929;-53
2021/12/03 03:23:47;;;;;;;;;;;;;;;16.07;64.07;97353.84;3071006;28;20399;-54
2021/12/03 03:25:20;;;;;;;;;;;;;;;16.06;64.04;97355.69;3071847;28;19930;-54
2021/12/03 03:26:51;;;;;;;;;;;;;;;16.07;64.13;97364.53;3068681;28;19952;-51
2021/12/03 03:28:24;;;;;;;;;;;;;;;16.05;64.07;97361.28;3069981;28;19926;-54
2021/12/03 03:29:56;;;;;;;;;;;;;;;16.06;64.16;97368.25;3067906;28;19937;-53
2021/12/03 03:31:27;;;;;;;;;;;;;;;16.05;64.18;97367.44;3070619;28;19930;-53
2021/12/03 03:33:00;;;;;;;;;;;;;;;16.07;64.09;97375.22;3070674;28;19923;-53
2021/12/03 03:34:31;;;;;;;;;;;;;;;16.05;64.05;97371.97;3070833;28;19981;-53
2021/12/03 03:36:03;;;;;;;;;;;;;;;16.05;64.05;97369.31;3070745;28;19922;-54
2021/12/03 03:37:36;;;;;;;;;;;;;;;16.03;64.18;97374.84;3070098;28;19938;-53
2021/12/03 03:39:09;;;;;;;;;;;;;;;16.03;64.13;97380.19;3069596;28;20038;-53
2021/12/03 03:40:42;;;;;;;;;;;;;;;16.04;64.09;97375.66;3072058;28;20348;-53
2021/12/03 03:42:13;;;;;;;;;;;;;;;16.02;64.15;97370.56;3069795;28;19931;-55
2021/12/03 03:43:45;;;;;;;;;;;;;;;16.03;64.16;97379.41;3072362;28;19923;-53
2021/12/03 03:45:16;;;;;;;;;;;;;;;16.03;64.07;97390.09;3069698;28;19934;-54
2021/12/03 03:46:50;;;;;;;;;;;;;;;16.01;64.21;97373.44;3067192;28;19922;-55
2021/12/03 03:48:23;;;;;;;;;;;;;;;16.00;64.27;97391.34;3071394;28;19937;-53
2021/12/03 03:49:55;;;;;;;;;;;;;;;15.99;64.16;97381.69;3070798;28;19926;-55
2021/12/03 03:51:27;;;;;;;;;;;;;;;15.99;64.08;97392.38;3072736;28;19926;-53
2021/12/03 03:53:01;;;;;;;;;;;;;;;15.99;64.18;97399.56;3067383;28;20992;-54
2021/12/03 03:54:32;;;;;;;;;;;;;;;15.99;64.23;97402.25;3069495;28;19933;-54
2021/12/03 03:56:04;;;;;;;;;;;;;;;16.00;64.16;97406.56;3070432;28;19985;-53
2021/12/03 03:57:36;;;;;;;;;;;;;;;15.98;64.27;97403.28;3070215;28;19925;-53
2021/12/03 03:59:07;;;;;;;;;;;;;;;15.97;64.18;97410.50;3069287;28;19930;-54
2021/12/03 04:00:41;;;;;;;;;;;;;;;15.97;64.14;97413.16;3069025;28;20324;-53
2021/12/03 04:02:12;;;;;;;;;;;;;;;15.96;64.17;97413.38;3072238;28;19933;-55
2021/12/03 04:03:46;;;;;;;;;;;;;;;15.96;64.23;97416.84;3071144;28;19922;-53
2021/12/03 04:05:18;;;;;;;;;;;;;;;15.96;64.16;97424.06;3072974;28;19981;-53
2021/12/03 04:06:51;;;;;;;;;;;;;;;15.96;64.17;97429.41;3070632;28;19922;-55
2021/12/03 04:08:24;;;;;;;;;;;;;;;15.95;64.26;97438.47;3064502;28;19992;-50
2021/12/03 04:09:56;;;;;;;;;;;;;;;15.92;64.24;97437.06;3072130;28;19929;-55
2021/12/03 04:11:27;;;;;;;;;;;;;;;15.93;64.27;97432.53;3070560;28;19941;-52
2021/12/03 04:12:59;;;;;;;;;;;;;;;15.92;64.24;97441.59;3068840;28;19922;-53
2021/12/03 04:14:31;;;;;;;;;;;;;;;15.91;64.22;97446.13;3070320;28;19933;-54
2021/12/03 04:16:03;;;;;;;;;;;;;;;15.89;64.29;97450.88;3069527;28;19923;-51
2021/12/03 04:17:35;;;;;;;;;;;;;;;15.91;64.30;97451.47;3069381;28;19930;-53
2021/12/03 04:19:06;;;;;;;;;;;;;;;15.89;64.32;97452.72;3071497;28;20288;-56
2021/12/03 04:20:38;;;;;;;;;;;;;;;15.89;64.19;97452.72;3068785;28;19937;-53
2021/12/03 04:22:08;;;;;;;;;;;;;;;15.87;64.16;97450.25;3069413;28;20290;-52
2021/12/03 04:23:41;;;;;;;;;;;;;;;15.86;64.25;97446.75;3070739;28;19976;-54
2021/12/03 04:25:16;;;;;;;;;;;;;;;15.85;64.30;97450.47;3069296;28;19950;-51
2021/12/03 04:26:47;;;;;;;;;;;;;;;15.85;64.34;97450.47;3068957;28;19985;-53
2021/12/03 04:28:22;;;;;;;;;;;;;;;15.85;64.23;97452.31;3069018;28;20578;-54
2021/12/03 04:29:54;;;;;;;;;;;;;;;15.83;64.22;97452.53;3070747;28;20028;-53
2021/12/03 04:31:25;;;;;;;;;;;;;;;15.83;64.28;97463.22;3069622;28;23041;-53
2021/12/03 04:32:57;;;;;;;;;;;;;;;15.82;64.32;97469.63;3069626;28;19922;-53
2021/12/03 04:34:29;;;;;;;;;;;;;;;15.81;64.28;97475.19;3067754;28;19957;-55
2021/12/03 04:36:01;;;;;;;;;;;;;;;15.81;64.32;97480.53;3072412;28;20360;-57
2021/12/03 04:37:32;;;;;;;;;;;;;;;15.79;64.25;97486.06;3068901;28;20356;-53
2021/12/03 04:39:05;;;;;;;;;;;;;;;15.79;64.26;97488.75;3070977;28;19930;-56
2021/12/03 04:40:38;;;;;;;;;;;;;;;15.78;64.32;97492.47;3069715;28;19940;-55
2021/12/03 04:42:09;;;;;;;;;;;;;;;15.78;64.31;97488.97;3071127;28;19949;-52
2021/12/03 04:43:41;;;;;;;;;;;;;;;15.78;64.32;97499.66;3072691;28;19930;-53
2021/12/03 04:45:14;;;;;;;;;;;;;;;15.76;64.33;97502.53;3070483;28;19922;-54
2021/12/03 04:46:46;;;;;;;;;;;;;;;15.76;64.30;97493.69;3068928;28;19929;-53
2021/12/03 04:48:17;;;;;;;;;;;;;;;15.74;64.19;97496.59;3069425;28;19933;-54
2021/12/03 04:49:49;;;;;;;;;;;;;;;15.73;64.37;97507.50;3074499;28;20609;-53
2021/12/03 04:51:20;;;;;;;;;;;;;;;15.72;64.42;97506.69;3072547;28;19922;-50
2021/12/03 04:52:53;;;;;;;;;;;;;;;15.73;64.38;97502.97;3070870;28;20360;-53
2021/12/03 04:54:26;;;;;;;;;;;;;;;15.72;64.38;97505.88;3069985;28;19984;-52
2021/12/03 04:55:57;;;;;;;;;;;;;;;15.70;64.38;97506.06;3071421;28;20532;-56
2021/12/03 04:57:29;;;;;;;;;;;;;;;15.70;64.33;97503.38;3072371;28;20595;-57
2021/12/03 04:59:00;;;;;;;;;;;;;;;15.70;64.32;97508.75;3069644;28;20648;-54
2021/12/03 05:00:34;;;;;;;;;;;;;;;15.69;64.35;97515.13;3071716;28;20351;-55
2021/12/03 05:02:06;;;;;;;;;;;;;;;15.68;64.39;97516.16;3068235;28;19925;-54
2021/12/03 05:03:37;;;;;;;;;;;;;;;15.67;64.33;97511.00;3069494;28;19964;-55
2021/12/03 05:05:09;;;;;;;;;;;;;;;15.68;64.42;97520.66;3067582;28;19930;-51
2021/12/03 05:06:54;;;;;;;;;;;;;;;15.65;64.36;97514.69;3069832;28;19922;-56
2021/12/03 05:08:27;;;;;;;;;;;;;;;15.67;64.36;97513.66;3069987;28;19929;-57
2021/12/03 05:09:59;;;;;;;;;;;;;;;15.68;64.35;97520.66;3072457;28;19948;-54
2021/12/03 05:11:31;;;;;;;;;;;;;;;15.71;64.34;97520.25;3070635;28;19937;-54
2021/12/03 05:13:04;;;;;;;;;;;;;;;15.76;64.48;97518.56;3069017;28;19926;-55
2021/12/03 05:14:35;;;;;;;;;;;;;;;15.85;64.24;97516.47;3069389;28;19922;-54
2021/12/03 05:16:07;;;;;;;;;;;;;;;15.93;64.06;97518.09;3069514;28;19929;-57
2021/12/03 05:17:38;;;;;;;;;;;;;;;15.99;64.04;97514.56;3067642;28;19930;-53
2021/12/03 05:19:10;;;;;;;;;;;;;;;16.07;63.86;97525.00;3070490;28;19981;-52
2021/12/03 05:20:42;;;;;;;;;;;;;;;16.13;63.82;97526.84;3069984;28;19969;-55
2021/12/03 05:22:13;;;;;;;;;;;;;;;16.18;63.79;97527.00;3065563;28;20543;-54
2021/12/03 05:23:45;;;;;;;;;;;;;;;16.24;63.67;97534.19;3068258;28;20617;-56
2021/12/03 05:25:18;;;;;;;;;;;;;;;16.29;63.64;97534.34;3071258;28;19930;-54
2021/12/03 05:26:50;;;;;;;;;;;;;;;16.34;63.54;97530.22;3069959;28;20025;-54
2021/12/03 05:28:21;;;;;;;;;;;;;;;16.40;63.46;97532.03;3068760;28;20564;-57
2021/12/03 05:29:53;;;;;;;;;;;;;;;16.46;63.47;97528.47;3072870;28;19945;-55
2021/12/03 05:31:24;;;;;;;;;;;;;;;16.50;63.29;97527.84;3069474;28;19922;-56
2021/12/03 05:32:56;;;;;;;;;;;;;;;16.57;63.31;97522.44;3066610;28;19981;-57
2021/12/03 05:34:28;;;;;;;;;;;;;;;16.61;63.16;97530.88;3067362;28;19930;-56
2021/12/03 05:35:59;;;;;;;;;;;;;;;16.66;63.18;97539.88;3068761;28;19926;-55
2021/12/03 05:37:31;;;;;;;;;;;;;;;16.68;63.08;97543.16;3067028;28;19929;-58
2021/12/03 05:39:03;;;;;;;;;;;;;;;16.72;63.07;97555.06;3069916;28;19929;-52
2021/12/03 05:40:36;;;;;;;;;;;;;;;16.74;63.03;97550.34;3072210;28;19926;-55
2021/12/03 05:42:08;;;;;;;;;;;;;;;16.79;62.89;97559.59;3069309;28;19928;-57
2021/12/03 05:43:39;;;;;;;;;;;;;;;16.81;63.08;97552.97;3071951;28;19926;-55
2021/12/03 05:45:12;;;;;;;;;;;;;;;16.84;62.99;97565.13;3069069;28;19922;-56
2021/12/03 05:46:44;;;;;;;;;;;;;;;16.88;62.95;97567.16;3071635;28;19925;-55
2021/12/03 05:48:16;;;;;;;;;;;;;;;16.91;62.92;97560.50;3064063;28;20132;-53
2021/12/03 05:49:47;;;;;;;;;;;;;;;16.95;62.89;97564.41;3068256;28;20483;-57
2021/12/03 05:51:19;;;;;;;;;;;;;;;16.97;62.86;97573.06;3066386;28;19926;-55
2021/12/03 05:52:51;;;;;;;;;;;;;;;17.00;62.84;97561.09;3067406;28;19937;-52
2021/12/03 05:54:23;;;;;;;;;;;;;;;17.03;62.74;97566.81;3069260;28;19937;-57
2021/12/03 05:55:56;;;;;;;;;;;;;;;17.05;62.81;97567.41;3070289;28;19930;-57
2021/12/03 05:57:27;;;;;;;;;;;;;;;17.10;62.62;97564.06;3069449;28;19937;-58
2021/12/03 05:58:59;;;;;;;;;;;;;;;17.11;62.63;97571.09;3071458;28;19922;-54
2021/12/03 06:00:32;;;;;;;;;;;;;;;17.13;62.62;97566.31;3068041;28;19925;-56
2021/12/03 06:02:03;;;;;;;;;;;;;;;17.16;62.50;97566.69;3068236;28;19922;-51
2021/12/03 06:03:35;;;;;;;;;;;;;;;17.20;62.54;97567.06;3065960;28;19926;-54
2021/12/03 06:05:08;;;;;;;;;;;;;;;17.23;62.61;97581.91;3069360;28;20404;-58
2021/12/03 06:06:39;;;;;;;;;;;;;;;17.26;62.49;97584.94;3069769;28;19922;-54
2021/12/03 06:08:11;;;;;;;;;;;;;;;17.27;62.55;97588.44;3072287;28;19937;-54
2021/12/03 06:09:43;;;;;;;;;;;;;;;17.30;62.51;97590.69;3071252;28;19926;-57
2021/12/03 06:11:16;;;;;;;;;;;;;;;17.30;62.54;97594.19;3072624;28;19938;-55
2021/12/03 06:12:48;;;;;;;;;;;;;;;17.31;62.50;97600.38;3069304;28;19929;-56
2021/12/03 06:14:20;;;;;;;;;;;;;;;17.33;62.48;97598.31;3072831;28;19930;-52
2021/12/03 06:15:51;;;;;;;;;;;;;;;17.34;62.47;97607.97;3069174;28;19930;-55
2021/12/03 06:17:23;;;;;;;;;;;;;;;17.35;62.49;97612.28;3069569;28;19930;-55
2021/12/03 06:18:54;;;;;;;;;;;;;;;17.35;62.47;97617.66;3069877;28;19930;-54
2021/12/03 06:20:26;;;;;;;;;;;;;;;17.35;62.38;97610.41;3067348;28;19930;-54
2021/12/03 06:21:58;;;;;;;;;;;;;;;17.37;62.43;97612.88;3072529;28;20437;-54
2021/12/03 06:23:30;;;;;;;;;;;;;;;17.37;62.52;97620.94;3069849;28;19937;-54
2021/12/03 06:25:04;;;;;;;;;;;;;;;17.38;62.37;97626.09;3067063;28;19929;-55
2021/12/03 06:26:37;;;;;;;;;;;;;;;17.38;62.42;97634.13;3066679;28;19926;-54
2021/12/03 06:28:09;;;;;;;;;;;;;;;17.38;62.50;97635.97;3071308;28;19926;-54
2021/12/03 06:29:41;;;;;;;;;;;;;;;17.39;62.58;97640.31;3067311;28;19922;-55
2021/12/03 06:31:12;;;;;;;;;;;;;;;17.39;62.51;97646.47;3065998;28;20510;-57
2021/12/03 06:32:44;;;;;;;;;;;;;;;17.39;62.49;97638.44;3068265;28;19929;-56
2021/12/03 06:34:16;;;;;;;;;;;;;;;17.40;62.44;97633.88;3068379;28;19965;-52
2021/12/03 06:35:47;;;;;;;;;;;;;;;17.39;62.30;97640.31;3071285;28;19923;-51
2021/12/03 06:37:19;;;;;;;;;;;;;;;17.39;62.41;97645.66;3070677;28;19926;-53
2021/12/03 06:38:51;;;;;;;;;;;;;;;17.38;62.21;97644.00;3067636;28;19957;-55
2021/12/03 06:40:27;;;;;;;;;;;;;;;17.39;62.30;97656.38;3073744;28;19930;-55
2021/12/03 06:42:00;;;;;;;;;;;;;;;17.38;62.54;97655.56;3070652;28;19926;-55
2021/12/03 06:43:31;;;;;;;;;;;;;;;17.40;62.45;97664.19;3066394;28;19926;-55
2021/12/03 06:45:05;;;;;;;;;;;;;;;17.40;62.48;97666.88;3067304;28;19943;-54
2021/12/03 06:46:37;;;;;;;;;;;;;;;17.39;62.45;97670.59;3068182;28;19933;-54
2021/12/03 06:48:09;;;;;;;;;;;;;;;17.40;62.45;97677.59;3067020;28;19930;-55
2021/12/03 06:49:40;;;;;;;;;;;;;;;17.40;62.46;97679.47;3065134;28;19953;-53
2021/12/03 06:51:12;;;;;;;;;;;;;;;17.39;62.40;97672.47;3067410;28;20633;-56
2021/12/03 06:52:46;;;;;;;;;;;;;;;17.39;62.51;97680.50;3069986;28;19926;-55
2021/12/03 06:54:24;;;;;;;;;;;;;;;17.40;62.55;97682.94;3072547;28;19921;-57
2021/12/03 06:55:58;;;;;;;;;;;;;;;17.39;62.37;97681.31;3073471;28;20471;-58
2021/12/03 06:57:31;;;;;;;;;;;;;;;17.41;62.44;97675.72;3069301;28;19922;-56
2021/12/03 06:59:03;;;;;;;;;;;;;;;17.41;62.40;97681.09;3070636;28;20363;-55
2021/12/03 07:00:34;;;;;;;;;;;;;;;17.43;62.25;97681.69;3066198;28;19942;-56
2021/12/03 07:02:06;;;;;;;;;;;;;;;17.43;62.29;97685.19;3061379;28;19930;-56
2021/12/03 07:03:38;;;;;;;;;;;;;;;17.44;62.32;97688.72;3058394;28;20061;-55
2021/12/03 07:05:09;;;;;;;;;;;;;;;17.45;62.34;97698.41;3071961;28;20312;-55
2021/12/03 07:06:41;;;;;;;;;;;;;;;17.46;62.39;97700.03;3071241;28;20297;-57
2021/12/03 07:08:13;;;;;;;;;;;;;;;17.47;62.16;97696.31;3069514;28;19929;-58
2021/12/03 07:09:44;;;;;;;;;;;;;;;17.50;62.26;97711.97;3069218;28;19934;-55
2021/12/03 07:11:17;;;;;;;;;;;;;;;17.53;62.30;97713.38;3062897;28;19977;-55
2021/12/03 07:12:50;;;;;;;;;;;;;;;17.52;62.14;97709.88;3067773;28;19954;-55
2021/12/03 07:14:22;;;;;;;;;;;;;;;17.55;62.27;97714.81;3067948;28;20004;-52
2021/12/03 07:15:53;;;;;;;;;;;;;;;17.58;62.34;97713.56;3070827;28;19993;-54
2021/12/03 07:17:26;;;;;;;;;;;;;;;17.60;62.05;97724.88;3068068;28;19930;-55
2021/12/03 07:18:58;;;;;;;;;;;;;;;17.61;61.99;97721.97;3063191;28;19930;-53
2021/12/03 07:20:30;;;;;;;;;;;;;;;17.63;62.12;97725.28;3065723;28;20364;-54
2021/12/03 07:22:02;;;;;;;;;;;;;;;17.67;62.06;97730.19;3067990;28;19922;-57
2021/12/03 07:23:34;;;;;;;;;;;;;;;17.68;62.04;97731.81;3066714;28;20534;-54
2021/12/03 07:25:06;;;;;;;;;;;;;;;17.69;62.10;97730.78;3067353;28;19930;-51
2021/12/03 07:26:37;;;;;;;;;;;;;;;17.69;62.04;97736.97;3070840;28;20686;-55
2021/12/03 07:28:11;;;;;;;;;;;;;;;17.70;61.95;97745.84;3065362;28;19922;-56
2021/12/03 07:29:46;;;;;;;;;;;;;;;17.71;62.00;97750.16;3067200;28;20012;-56
2021/12/03 07:31:18;;;;;;;;;;;;;;;17.71;61.98;97752.84;3068158;28;19921;-52
2021/12/03 07:32:50;;;;;;;;;;;;;;;17.72;61.88;97762.50;3067136;28;20520;-56
2021/12/03 07:34:22;;;;;;;;;;;;;;;17.71;62.11;97761.69;3070274;28;19930;-52
2021/12/03 07:35:53;;;;;;;;;;;;;;;17.72;62.18;97759.81;3065924;28;20431;-52
2021/12/03 07:37:25;;;;;;;;;;;;;;;17.72;62.02;97762.50;3068863;28;23530;-55
2021/12/03 07:38:56;;;;;;;;;;;;;;;17.72;62.11;97759.81;3069357;28;20357;-52
2021/12/03 07:40:28;;;;;;;;;;;;;;;17.71;62.12;97768.94;3071622;28;20957;-54
2021/12/03 07:41:59;;;;;;;;;;;;;;;17.70;61.88;97764.63;3067121;28;20546;-55
2021/12/03 07:43:32;;;;;;;;;;;;;;;17.71;61.98;97768.94;3064514;28;19922;-55
2021/12/03 07:45:06;;;;;;;;;;;;;;;17.70;62.02;97764.63;3066077;28;19926;-53
2021/12/03 07:46:37;;;;;;;;;;;;;;;17.69;61.90;97774.53;3067643;28;20325;-56
2021/12/03 07:48:09;;;;;;;;;;;;;;;17.70;62.06;97767.28;3065946;28;19929;-55
2021/12/03 07:49:41;;;;;;;;;;;;;;;17.69;62.14;97771.00;3067095;28;19934;-53
2021/12/03 07:51:13;;;;;;;;;;;;;;;17.68;62.13;97766.69;3067008;28;19932;-55
2021/12/03 07:52:44;;;;;;;;;;;;;;;17.68;62.03;97767.50;3068416;28;20574;-52
2021/12/03 07:54:17;;;;;;;;;;;;;;;17.67;61.92;97765.06;3064507;28;19922;-56
2021/12/03 07:55:49;;;;;;;;;;;;;;;17.64;61.94;97769.81;3070959;28;19965;-54
2021/12/03 07:57:21;;;;;;;;;;;;;;;17.64;62.21;97769.81;3068567;28;20340;-55
2021/12/03 07:58:54;;;;;;;;;;;;;;;17.63;62.15;97776.22;3069875;28;19975;-54
2021/12/03 08:00:26;;;;;;;;;;;;;;;17.62;62.26;97779.09;3065104;28;20263;-54